createdAt,value
2022-12-13T00:02:04.183Z,28.35
2022-12-13T00:04:31.932Z,24.33
2022-12-13T00:06:59.248Z,51.50
2022-12-13T00:09:27.253Z,37.17
2022-12-13T00:11:54.957Z,51.83
2022-12-13T00:14:22.645Z,43.58
2022-12-13T00:16:50.651Z,32.65
2022-12-13T00:19:19.385Z,29.92
2022-12-13T00:21:48.013Z,35.38
2022-12-13T00:24:15.396Z,36.22
2022-12-13T00:26:43.584Z,32.83
2022-12-13T00:29:12.233Z,36.38
2022-12-13T00:34:27.593Z,35.78
2022-12-13T00:36:55.650Z,37.85
2022-12-13T00:39:23.222Z,44.45
2022-12-13T00:41:50.590Z,45.65
2022-12-13T00:44:20.357Z,33.75
2022-12-13T00:49:16.698Z,43.95
2022-12-13T00:51:44.384Z,51.10
2022-12-13T00:54:11.926Z,60.30
2022-12-13T00:56:39.288Z,47.03
2022-12-13T00:59:07.548Z,50.08
2022-12-13T01:01:36.917Z,54.72
2022-12-13T01:04:06.209Z,47.15
2022-12-13T01:06:39.256Z,62.33
2022-12-13T01:09:13.466Z,48.33
2022-12-13T01:11:40.846Z,38.97
2022-12-13T01:14:08.102Z,48.33
2022-12-13T01:16:35.639Z,43.53
2022-12-13T01:19:04.335Z,38.45
2022-12-13T01:21:31.995Z,40.90
2022-12-13T01:24:05.832Z,48.45
2022-12-13T01:26:34.978Z,40.80
2022-12-13T01:29:05.558Z,53.55
2022-12-13T01:31:34.376Z,49.33
2022-12-13T01:34:10.531Z,52.97
2022-12-13T01:36:39.392Z,47.95
2022-12-13T01:39:15.264Z,46.22
2022-12-13T01:41:45.469Z,38.60
2022-12-13T01:44:50.780Z,48.92
2022-12-13T01:47:43.084Z,40.58
2022-12-13T01:50:21.924Z,37.38
2022-12-13T01:52:50.567Z,41.40
2022-12-13T01:55:20.624Z,40.28
2022-12-13T01:57:51.288Z,50.25
2022-12-13T02:00:19.113Z,51.75
2022-12-13T02:02:48.618Z,51.88
2022-12-13T02:05:25.942Z,43.97
2022-12-13T02:07:53.855Z,48.58
2022-12-13T02:10:22.036Z,43.22
2022-12-13T02:12:49.762Z,55.28
2022-12-13T02:15:19.885Z,48.55
2022-12-13T02:17:56.741Z,43.42
2022-12-13T02:20:55.618Z,37.50
2022-12-13T02:24:09.293Z,43.47
2022-12-13T02:26:59.547Z,43.00
2022-12-13T02:29:46.562Z,39.10
2022-12-13T02:32:31.968Z,42.03
2022-12-13T02:35:14.747Z,40.13
2022-12-13T02:37:51.641Z,40.92
2022-12-13T02:40:33.535Z,46.67
2022-12-13T02:43:18.404Z,37.15
2022-12-13T02:46:01.965Z,35.10
2022-12-13T02:48:36.339Z,43.45
2022-12-13T02:51:06.627Z,37.50
2022-12-13T02:53:36.922Z,83.35
2022-12-13T02:56:05.488Z,103.07
2022-12-13T02:58:41.961Z,66.05
2022-12-13T03:01:47.056Z,54.78
2022-12-13T03:04:32.059Z,44.65
2022-12-13T03:07:23.837Z,45.67
2022-12-13T03:10:09.763Z,39.08
2022-12-13T03:13:09.671Z,51.95
2022-12-13T03:15:57.233Z,42.55
2022-12-13T03:18:27.990Z,43.97
2022-12-13T03:21:03.805Z,35.42
2022-12-13T03:23:32.213Z,40.03
2022-12-13T03:26:05.297Z,38.83
2022-12-13T03:28:33.585Z,36.50
2022-12-13T03:31:02.746Z,40.33
2022-12-13T03:33:30.970Z,35.15
2022-12-13T03:35:59.039Z,31.20
2022-12-13T03:38:27.052Z,33.45
2022-12-13T03:40:59.363Z,35.25
2022-12-13T03:43:27.777Z,32.35
2022-12-13T03:45:57.510Z,33.28
2022-12-13T03:48:25.098Z,35.65
2022-12-13T03:50:54.324Z,42.22
2022-12-13T03:53:33.459Z,34.20
2022-12-13T03:56:04.898Z,37.03
2022-12-13T03:58:37.316Z,45.30
2022-12-13T04:01:07.860Z,39.83
2022-12-13T04:03:36.828Z,36.22
2022-12-13T04:06:05.385Z,35.78
2022-12-13T04:08:35.020Z,58.85
2022-12-13T04:11:22.964Z,40.90
2022-12-13T04:13:50.808Z,36.25
2022-12-13T04:16:18.340Z,32.28
2022-12-13T04:18:45.744Z,24.20
2022-12-13T04:21:13.199Z,27.30
2022-12-13T04:23:40.594Z,31.48
2022-12-13T04:26:08.310Z,40.72
2022-12-13T04:28:35.581Z,43.83
2022-12-13T04:31:04.670Z,16.67
2022-12-13T04:33:33.080Z,28.05
2022-12-13T04:36:00.801Z,20.05
2022-12-13T04:38:29.074Z,21.95
2022-12-13T04:41:09.382Z,22.05
2022-12-13T04:43:36.853Z,16.67
2022-12-13T04:46:05.945Z,23.73
2022-12-13T04:48:34.626Z,34.75
2022-12-13T04:51:02.498Z,22.85
2022-12-13T04:53:30.880Z,60.88
2022-12-13T04:55:59.196Z,30.63
2022-12-13T04:58:28.178Z,20.60
2022-12-13T05:00:59.461Z,71.30
2022-12-13T05:03:28.924Z,34.45
2022-12-13T05:05:57.130Z,22.38
2022-12-13T05:08:24.719Z,19.90
2022-12-13T05:10:54.315Z,19.00
2022-12-13T05:13:21.641Z,27.88
2022-12-13T05:15:59.141Z,40.45
2022-12-13T05:18:28.348Z,24.85
2022-12-13T05:20:57.176Z,38.97
2022-12-13T05:23:25.657Z,29.30
2022-12-13T05:25:53.365Z,23.05
2022-12-13T05:28:28.110Z,22.52
2022-12-13T05:31:06.435Z,24.65
2022-12-13T05:33:54.345Z,20.65
2022-12-13T05:36:29.028Z,19.75
2022-12-13T05:38:57.363Z,22.38
2022-12-13T05:41:32.442Z,36.60
2022-12-13T05:44:00.268Z,27.70
2022-12-13T05:46:28.416Z,28.90
2022-12-13T05:48:57.690Z,35.72
2022-12-13T05:51:25.930Z,20.52
2022-12-13T05:53:54.954Z,19.30
2022-12-13T05:56:25.913Z,23.13
2022-12-13T05:58:54.827Z,17.75
2022-12-13T06:01:22.487Z,17.50
2022-12-13T06:03:50.789Z,22.08
2022-12-13T06:06:20.001Z,49.97
2022-12-13T06:08:47.433Z,41.70
2022-12-13T06:11:31.341Z,23.00
2022-12-13T06:14:00.988Z,23.27
2022-12-13T06:16:30.007Z,23.35
2022-12-13T06:19:04.312Z,21.48
2022-12-13T06:21:43.412Z,19.98
2022-12-13T06:26:48.724Z,18.50
2022-12-13T06:29:22.579Z,18.48
2022-12-13T06:32:01.722Z,17.25
2022-12-13T06:34:32.546Z,20.60
2022-12-13T06:37:01.101Z,18.40
2022-12-13T06:39:32.419Z,17.75
2022-12-13T06:42:08.273Z,16.45
2022-12-13T06:44:36.452Z,17.98
2022-12-13T06:47:10.280Z,17.98
2022-12-13T06:49:44.379Z,26.70
2022-12-13T06:52:14.767Z,24.92
2022-12-13T06:54:45.133Z,26.90
2022-12-13T06:57:14.019Z,24.67
2022-12-13T06:59:42.101Z,32.97
2022-12-13T07:02:24.234Z,27.85
2022-12-13T07:04:54.413Z,28.70
2022-12-13T07:07:21.903Z,19.38
2022-12-13T07:09:49.286Z,19.77
2022-12-13T07:12:16.640Z,23.98
2022-12-13T07:14:45.520Z,21.38
2022-12-13T07:17:13.212Z,19.02
2022-12-13T07:20:01.481Z,41.90
2022-12-13T07:22:34.486Z,62.95
2022-12-13T07:25:04.698Z,35.42
2022-12-13T07:27:32.233Z,33.60
2022-12-13T07:30:01.541Z,34.33
2022-12-13T07:32:29.322Z,28.92
2022-12-13T07:34:57.086Z,19.50
2022-12-13T07:37:30.655Z,33.70
2022-12-13T07:40:03.753Z,37.10
2022-12-13T07:42:33.124Z,21.17
2022-12-13T07:45:01.380Z,19.02
2022-12-13T07:47:32.644Z,18.63
2022-12-13T07:50:01.581Z,15.45
2022-12-13T07:52:29.603Z,20.13
2022-12-13T07:54:57.989Z,21.83
2022-12-13T07:57:25.981Z,44.30
2022-12-13T07:59:53.447Z,21.70
2022-12-13T08:02:22.024Z,22.08
2022-12-13T08:04:54.680Z,34.15
2022-12-13T08:07:23.176Z,24.58
2022-12-13T08:09:52.983Z,17.75
2022-12-13T08:12:23.265Z,38.22
2022-12-13T08:14:53.108Z,33.15
2022-12-13T08:17:24.820Z,31.35
2022-12-13T08:19:53.490Z,26.55
2022-12-13T08:22:23.851Z,20.10
2022-12-13T08:24:52.127Z,22.70
2022-12-13T08:27:19.899Z,21.83
2022-12-13T08:29:47.251Z,24.70
2022-12-13T08:32:14.637Z,21.23
2022-12-13T08:34:42.005Z,20.75
2022-12-13T08:37:09.875Z,22.92
2022-12-13T08:39:38.711Z,16.48
2022-12-13T08:42:19.741Z,17.33
2022-12-13T08:44:51.573Z,26.60
2022-12-13T08:47:26.416Z,26.60
2022-12-13T08:50:04.011Z,23.58
2022-12-13T08:52:39.139Z,20.15
2022-12-13T08:55:11.561Z,19.45
2022-12-13T08:57:40.890Z,17.13
2022-12-13T09:00:11.938Z,17.35
2022-12-13T09:02:39.411Z,18.58
2022-12-13T09:05:09.155Z,22.77
2022-12-13T09:07:41.320Z,18.50
2022-12-13T09:10:26.751Z,20.75
2022-12-13T09:13:02.379Z,25.83
2022-12-13T09:15:34.617Z,35.25
2022-12-13T09:18:04.302Z,26.25
2022-12-13T09:20:40.955Z,19.23
2022-12-13T09:23:22.998Z,19.67
2022-12-13T09:26:05.872Z,23.02
2022-12-13T09:28:35.311Z,19.50
2022-12-13T09:31:16.865Z,15.98
2022-12-13T09:33:45.408Z,17.35
2022-12-13T09:36:18.931Z,16.80
2022-12-13T09:38:47.099Z,26.45
2022-12-13T09:41:31.278Z,20.48
2022-12-13T09:44:31.508Z,18.92
2022-12-13T09:47:13.835Z,15.23
2022-12-13T09:49:52.831Z,14.90
2022-12-13T09:52:23.821Z,15.73
2022-12-13T09:54:56.138Z,13.18
2022-12-13T09:57:31.122Z,16.02
2022-12-13T10:00:05.783Z,16.92
2022-12-13T10:02:52.003Z,14.45
2022-12-13T10:05:39.409Z,16.95
2022-12-13T10:08:20.251Z,15.90
2022-12-13T10:10:53.407Z,14.88
2022-12-13T10:13:29.548Z,12.75
2022-12-13T10:16:08.444Z,16.15
2022-12-13T10:18:41.955Z,13.82
2022-12-13T10:21:18.511Z,15.05
2022-12-13T10:24:24.135Z,14.70
2022-12-13T10:26:37.839Z,17.40
2022-12-13T10:29:07.567Z,27.77
2022-12-13T10:31:48.126Z,23.42
2022-12-13T10:34:21.833Z,22.00
2022-12-13T10:36:49.613Z,90.22
2022-12-13T10:39:37.414Z,20.42
2022-12-13T10:42:12.399Z,19.38
2022-12-13T10:44:40.809Z,21.95
2022-12-13T10:47:11.134Z,24.55
2022-12-13T10:49:59.725Z,19.08
2022-12-13T10:52:33.355Z,18.52
2022-12-13T10:55:23.528Z,33.13
2022-12-13T10:57:54.257Z,12.98
2022-12-13T11:00:48.627Z,14.20
2022-12-13T11:03:35.106Z,16.63
2022-12-13T11:06:16.474Z,14.20
2022-12-13T11:08:45.023Z,15.10
2022-12-13T11:11:13.168Z,22.52
2022-12-13T11:13:47.572Z,17.95
2022-12-13T11:16:37.187Z,14.40
2022-12-13T11:19:33.665Z,21.88
2022-12-13T11:22:01.760Z,39.50
2022-12-13T11:24:34.327Z,48.47
2022-12-13T11:27:30.722Z,36.63
2022-12-13T11:30:02.703Z,25.58
2022-12-13T11:32:36.451Z,14.10
2022-12-13T11:35:28.021Z,16.35
2022-12-13T11:38:07.621Z,12.27
2022-12-13T11:40:44.759Z,16.17
2022-12-13T11:43:28.263Z,13.23
2022-12-13T11:46:02.711Z,11.82
2022-12-13T11:49:03.561Z,16.17
2022-12-13T11:51:43.462Z,15.38
2022-12-13T11:54:25.370Z,13.60
2022-12-13T11:57:00.546Z,14.10
2022-12-13T11:59:45.320Z,14.60
2022-12-13T12:02:34.741Z,18.00
2022-12-13T12:05:28.957Z,13.70
2022-12-13T12:08:32.266Z,13.02
2022-12-13T12:11:17.446Z,14.00
2022-12-13T12:13:57.122Z,11.77
2022-12-13T12:16:44.354Z,12.82
2022-12-13T12:19:44.115Z,15.43
2022-12-13T12:22:55.027Z,14.40
2022-12-13T12:25:55.841Z,13.88
2022-12-13T12:29:28.101Z,12.68
2022-12-13T12:32:26.459Z,15.80
2022-12-13T12:35:46.226Z,15.18
2022-12-13T12:39:04.291Z,14.68
2022-12-13T12:42:10.865Z,14.85
2022-12-13T12:45:10.668Z,12.52
2022-12-13T12:49:02.154Z,14.73
2022-12-13T12:51:56.567Z,15.70
2022-12-13T12:55:18.581Z,21.23
2022-12-13T12:58:25.226Z,19.98
2022-12-13T13:01:39.090Z,15.65
2022-12-13T13:04:44.624Z,13.95
2022-12-13T13:07:51.554Z,15.15
2022-12-13T13:10:26.654Z,19.13
2022-12-13T13:13:11.544Z,18.52
2022-12-13T13:15:46.453Z,23.73
2022-12-13T13:21:24.599Z,19.27
2022-12-13T13:24:13.858Z,12.02
2022-12-13T13:27:05.338Z,18.17
2022-12-13T13:29:35.670Z,19.88
2022-12-13T13:32:12.059Z,21.65
2022-12-13T13:34:43.438Z,31.52
2022-12-13T13:37:24.400Z,35.10
2022-12-13T13:40:31.466Z,20.48
2022-12-13T13:43:12.358Z,15.38
2022-12-13T13:45:54.931Z,20.25
2022-12-13T13:48:36.785Z,115.18
2022-12-13T13:51:26.773Z,79.82
2022-12-13T13:53:57.591Z,57.83
2022-12-13T13:56:50.197Z,32.85
2022-12-13T13:59:32.664Z,28.90
2022-12-13T14:02:20.028Z,24.40
2022-12-13T14:05:15.805Z,23.23
2022-12-13T14:08:14.043Z,27.13
2022-12-13T14:11:00.388Z,24.90
2022-12-13T14:14:40.881Z,21.00
2022-12-13T14:17:35.861Z,26.10
2022-12-13T14:20:42.545Z,21.05
2022-12-13T14:23:37.418Z,19.45
2022-12-13T14:26:32.777Z,17.40
2022-12-13T14:29:04.107Z,15.35
2022-12-13T14:31:43.395Z,18.35
2022-12-13T14:34:37.748Z,15.10
2022-12-13T14:37:19.705Z,19.02
2022-12-13T14:39:47.818Z,15.32
2022-12-13T14:43:06.523Z,23.92
2022-12-13T14:45:36.964Z,18.77
2022-12-13T14:48:11.809Z,19.58
2022-12-13T14:50:41.590Z,13.52
2022-12-13T14:53:25.774Z,15.15
2022-12-13T14:56:04.651Z,15.35
2022-12-13T14:58:32.345Z,20.48
2022-12-13T15:01:33.818Z,49.80
2022-12-13T15:04:18.986Z,267.77
2022-12-13T15:06:48.447Z,353.17
2022-12-13T15:09:17.363Z,144.25
2022-12-13T15:11:46.612Z,79.00
2022-12-13T15:14:20.117Z,62.10
2022-12-13T15:16:50.586Z,45.13
2022-12-13T15:19:30.083Z,28.50
2022-12-13T15:22:07.927Z,22.52
2022-12-13T15:24:49.201Z,21.40
2022-12-13T15:27:27.205Z,23.27
2022-12-13T15:29:55.724Z,21.00
2022-12-13T15:32:24.311Z,19.75
2022-12-13T15:34:53.014Z,22.42
2022-12-13T15:37:30.437Z,28.60
2022-12-13T15:40:09.224Z,20.85
2022-12-13T15:42:48.403Z,18.00
2022-12-13T15:45:29.185Z,24.05
2022-12-13T15:48:00.813Z,23.45
2022-12-13T15:50:47.051Z,21.08
2022-12-13T15:53:27.736Z,30.67
2022-12-13T15:55:56.054Z,35.53
2022-12-13T15:58:36.206Z,28.85
2022-12-13T16:01:05.925Z,22.30
2022-12-13T16:03:44.926Z,23.27
2022-12-13T16:06:26.530Z,25.58
2022-12-13T16:08:58.529Z,25.58
2022-12-13T16:11:31.185Z,25.90
2022-12-13T16:14:30.655Z,21.25
2022-12-13T16:17:25.028Z,19.98
2022-12-13T16:19:54.650Z,24.60
2022-12-13T16:22:24.314Z,24.02
2022-12-13T16:24:52.910Z,20.95
2022-12-13T16:27:21.988Z,29.27
2022-12-13T16:29:50.656Z,24.42
2022-12-13T16:32:18.181Z,26.95
2022-12-13T16:34:46.582Z,25.38
2022-12-13T16:37:26.170Z,26.88
2022-12-13T16:39:55.868Z,25.52
2022-12-13T16:42:25.975Z,25.63
2022-12-13T16:45:40.687Z,26.65
2022-12-13T16:47:49.292Z,30.67
2022-12-13T16:50:19.867Z,31.60
2022-12-13T16:52:48.218Z,37.50
2022-12-13T16:55:16.298Z,39.88
2022-12-13T16:57:55.835Z,38.73
2022-12-13T17:00:30.409Z,55.15
2022-12-13T17:03:00.208Z,45.28
2022-12-13T17:05:29.002Z,39.35
2022-12-13T17:07:58.914Z,37.40
2022-12-13T17:10:27.150Z,41.80
2022-12-13T17:12:55.260Z,36.17
2022-12-13T17:15:28.642Z,41.20
2022-12-13T17:17:56.430Z,46.30
2022-12-13T17:20:25.293Z,47.50
2022-12-13T17:22:52.794Z,46.25
2022-12-13T17:25:20.118Z,42.40
2022-12-13T17:27:47.512Z,46.17
2022-12-13T17:30:25.193Z,48.47
2022-12-13T17:32:58.404Z,79.80
2022-12-13T17:35:27.387Z,77.68
2022-12-13T17:37:55.119Z,65.32
2022-12-13T17:40:22.448Z,47.92
2022-12-13T17:42:51.181Z,54.47
2022-12-13T17:45:26.794Z,51.50
2022-12-13T17:47:55.516Z,55.60
2022-12-13T17:50:22.814Z,51.67
2022-12-13T17:52:50.566Z,55.55
2022-12-13T17:55:18.832Z,44.78
2022-12-13T17:57:46.602Z,45.60
2022-12-13T18:00:17.330Z,39.80
2022-12-13T18:02:55.433Z,44.15
2022-12-13T18:05:27.058Z,53.97
2022-12-13T18:07:54.408Z,65.03
2022-12-13T18:10:26.243Z,93.25
2022-12-13T18:12:56.828Z,70.63
2022-12-13T18:15:29.464Z,57.35
2022-12-13T18:18:13.930Z,59.92
2022-12-13T18:20:41.418Z,60.10
2022-12-13T18:23:09.983Z,51.65
2022-12-13T18:25:37.765Z,63.95
2022-12-13T18:28:06.904Z,73.82
2022-12-13T18:30:38.249Z,65.18
2022-12-13T18:33:06.497Z,51.28
2022-12-13T18:35:34.512Z,80.20
2022-12-13T18:38:02.587Z,96.95
2022-12-13T18:40:29.818Z,69.10
2022-12-13T18:42:57.543Z,66.75
2022-12-13T18:45:28.911Z,137.95
2022-12-13T18:47:56.321Z,136.60
2022-12-13T18:50:23.699Z,88.50
2022-12-13T18:52:51.231Z,79.88
2022-12-13T18:55:18.751Z,115.18
2022-12-13T18:57:46.042Z,176.70
2022-12-13T19:00:13.868Z,112.40
2022-12-13T19:02:41.403Z,90.10
2022-12-13T19:05:10.092Z,76.03
2022-12-13T19:07:37.436Z,63.15
2022-12-13T19:10:05.945Z,66.80
2022-12-13T19:12:35.129Z,60.67
2022-12-13T19:15:05.902Z,58.63
2022-12-13T19:17:35.107Z,44.20
2022-12-13T19:20:02.842Z,44.58
2022-12-13T19:22:31.427Z,36.85
2022-12-13T19:24:58.595Z,40.35
2022-12-13T19:27:26.286Z,32.70
2022-12-13T19:29:53.713Z,28.95
2022-12-13T19:32:22.054Z,31.15
2022-12-13T19:34:49.349Z,28.55
2022-12-13T19:37:16.846Z,36.60
2022-12-13T19:39:44.112Z,47.15
2022-12-13T19:42:43.244Z,61.10
2022-12-13T19:45:11.485Z,52.65
2022-12-13T19:47:38.876Z,38.28
2022-12-13T19:50:07.069Z,43.28
2022-12-13T19:52:34.317Z,44.55
2022-12-13T19:55:02.431Z,42.35
2022-12-13T19:57:33.292Z,47.70
2022-12-13T20:00:02.505Z,70.70
2022-12-13T20:02:34.093Z,63.38
2022-12-13T20:05:02.936Z,51.45
2022-12-13T20:07:30.198Z,36.50
2022-12-13T20:09:57.664Z,40.55
2022-12-13T20:12:25.296Z,44.15
2022-12-13T20:14:52.991Z,53.70
2022-12-13T20:17:20.434Z,43.90
2022-12-13T20:19:47.747Z,43.80
2022-12-13T20:22:15.742Z,53.72
2022-12-13T20:24:44.503Z,50.60
2022-12-13T20:27:11.964Z,64.03
2022-12-13T20:29:39.366Z,56.40
2022-12-13T20:32:06.806Z,52.95
2022-12-13T20:34:34.934Z,42.50
2022-12-13T20:37:02.566Z,42.40
2022-12-13T20:39:30.030Z,43.45
2022-12-13T20:41:57.253Z,40.38
2022-12-13T20:44:24.755Z,42.55
2022-12-13T20:46:52.405Z,57.13
2022-12-13T20:49:20.730Z,60.17
2022-12-13T20:51:48.001Z,51.45
2022-12-13T20:54:15.417Z,57.78
2022-12-13T20:56:43.765Z,48.72
2022-12-13T20:59:14.331Z,59.15
2022-12-13T21:01:44.331Z,56.40
2022-12-13T21:04:16.355Z,56.85
2022-12-13T21:06:43.728Z,58.05
2022-12-13T21:09:12.316Z,77.25
2022-12-13T21:11:45.755Z,54.42
2022-12-13T21:14:23.449Z,60.90
2022-12-13T21:16:54.376Z,60.72
2022-12-13T21:21:53.984Z,44.85
2022-12-13T21:24:24.305Z,48.78
2022-12-13T21:26:51.657Z,49.63
2022-12-13T21:29:19.638Z,57.88
2022-12-13T21:31:49.986Z,48.50
2022-12-13T21:34:18.229Z,48.42
2022-12-13T21:36:47.943Z,48.47
2022-12-13T21:39:33.893Z,53.75
2022-12-13T21:42:05.758Z,49.90
2022-12-13T21:44:33.249Z,51.30
2022-12-13T21:47:16.357Z,61.65
2022-12-13T21:49:48.556Z,54.03
2022-12-13T21:52:17.898Z,51.08
2022-12-13T21:54:45.221Z,62.33
2022-12-13T21:57:30.970Z,62.35
2022-12-13T21:59:59.972Z,62.78
2022-12-13T22:02:28.447Z,55.97
2022-12-13T22:04:58.460Z,56.53
2022-12-13T22:07:30.189Z,60.83
2022-12-13T22:09:58.806Z,60.05
2022-12-13T22:12:35.462Z,53.58
2022-12-13T22:15:04.964Z,54.60
2022-12-13T22:17:35.670Z,57.83
2022-12-13T22:20:10.824Z,60.33
2022-12-13T22:22:39.744Z,59.42
2022-12-13T22:25:08.401Z,61.83
2022-12-13T22:27:36.848Z,54.50
2022-12-13T22:30:05.255Z,60.53
2022-12-13T22:32:33.364Z,62.90
2022-12-13T22:35:01.883Z,47.03
2022-12-13T22:37:30.043Z,60.50
2022-12-13T22:39:57.360Z,66.38
2022-12-13T22:42:27.207Z,61.90
2022-12-13T22:44:54.527Z,56.30
2022-12-13T22:47:22.993Z,55.42
2022-12-13T22:49:50.509Z,59.20
2022-12-13T22:52:18.906Z,56.15
2022-12-13T22:54:46.257Z,58.67
2022-12-13T22:57:13.627Z,53.45
2022-12-13T22:59:41.325Z,55.47
2022-12-13T23:02:10.229Z,58.17
2022-12-13T23:04:38.138Z,52.00
2022-12-13T23:07:05.423Z,51.80
2022-12-13T23:09:33.162Z,63.97
2022-12-13T23:12:19.089Z,54.97
2022-12-13T23:14:46.638Z,54.40
2022-12-13T23:17:14.007Z,58.20
2022-12-13T23:19:50.040Z,54.15
2022-12-13T23:22:22.633Z,41.80
2022-12-13T23:24:51.554Z,41.47
2022-12-13T23:27:20.785Z,51.80
2022-12-13T23:29:48.416Z,51.42
2022-12-13T23:32:17.073Z,42.85
2022-12-13T23:34:44.344Z,41.67
2022-12-13T23:37:11.850Z,40.95
2022-12-13T23:39:39.907Z,43.13
2022-12-13T23:42:07.463Z,46.25
2022-12-13T23:44:36.108Z,46.70
2022-12-13T23:47:03.486Z,48.35
2022-12-13T23:50:13.699Z,48.38
2022-12-13T23:52:53.172Z,47.60
2022-12-13T23:55:20.724Z,45.72
2022-12-13T23:57:48.380Z,49.83
